Ackerman, Mississippi
Current Conditions -  °F | °C
As of 7:55 PM on Monday 24 Nov 2014 (Local Time) from KSTF Reporting Station
Clear Clear  
Wind Chill: 44°   Ceiling: Unl
Heat Index: 46°   Visibility: NA
Dew Point: 36°   Wind: 5mph
Humidity: 66%   Direction: 290°WNW
Pressure: 30.03"   Gusts: NA
Location:  33.31°N, 89.17°W
Report Text: KSTF 250155Z AUTO 29004KT CLR 08/02 A3003 RMK AO2 PWINO
Loading
Personal Weather Stations






























Interactive Weather Map New forecast layout! Learn more

10-Day Weather Forecast

Advertisements
Track Severe Weather on mobile